Time;durP1;ratioP1;P1;durP2;ratioP2;P2;SDS_P1;SDS_P2;PMS_P1;PMS_P2;Temp;Humidity;BMP_temperature;BMP_pressure;BME280_temperature;BME280_humidity;BME280_pressure;Samples;Min_cycle;Max_cycle;Signal;HPM_P1;HPM_P2
2022/01/26 00:06:26;;;;;;;99.85;32.15;;;;;;;-0.83;100.00;98033.78;5037130;28;20136;-67
2022/01/26 00:08:52;;;;;;;95.90;34.03;;;;;;;-0.76;100.00;98025.47;5038335;28;20125;-67
2022/01/26 00:11:17;;;;;;;94.80;33.10;;;;;;;-0.76;100.00;98020.09;5041294;28;20059;-67
2022/01/26 00:13:42;;;;;;;173.13;34.30;;;;;;;-1.04;100.00;98021.28;5046578;28;20079;-64
2022/01/26 00:16:15;;;;;;;102.35;33.13;;;;;;;-1.13;100.00;98018.25;5038872;28;20045;-67
2022/01/26 00:18:40;;;;;;;115.10;38.10;;;;;;;-1.10;100.00;98017.72;5037996;28;20461;-65
2022/01/26 00:21:16;;;;;;;107.85;36.85;;;;;;;-1.13;100.00;98020.94;5041127;28;20045;-64
2022/01/26 00:27:04;;;;;;;111.50;37.72;;;;;;;-1.03;100.00;98012.91;5037803;28;20126;-66
2022/01/26 00:29:16;;;;;;;100.35;37.83;;;;;;;-0.93;100.00;98014.09;5031987;28;20038;-67
2022/01/26 00:40:11;;;;;;;95.97;33.08;;;;;;;-0.73;100.00;98016.88;5045186;28;20386;-65
2022/01/26 00:42:39;;;;;;;85.97;30.90;;;;;;;-0.70;100.00;98021.75;5043731;28;20045;-69
2022/01/26 00:45:07;;;;;;;90.72;31.88;;;;;;;-0.67;100.00;98018.50;5040711;28;20052;-63
2022/01/26 00:47:33;;;;;;;93.57;32.67;;;;;;;-0.66;100.00;98027.41;5044928;28;20579;-68
2022/01/26 00:50:03;;;;;;;95.05;33.45;;;;;;;-0.63;100.00;98018.81;5046026;28;20133;-67
2022/01/26 00:52:39;;;;;;;93.07;33.05;;;;;;;-0.68;100.00;98016.91;5041675;28;20168;-68
2022/01/26 00:55:06;;;;;;;88.57;31.15;;;;;;;-0.70;100.00;98016.38;5030815;28;20094;-63
2022/01/26 00:57:32;;;;;;;99.15;35.47;;;;;;;-0.72;100.00;98015.00;5025534;28;20046;-67
2022/01/26 00:59:59;;;;;;;102.68;34.70;;;;;;;-0.70;100.00;98019.06;5025427;28;20044;-68
2022/01/26 01:02:24;;;;;;;95.00;32.30;;;;;;;-0.63;100.00;98016.09;5020141;28;20825;-67
2022/01/26 01:04:50;;;;;;;93.40;32.85;;;;;;;-0.54;100.00;98025.34;5025667;28;20041;-67
2022/01/26 01:07:19;;;;;;;100.07;33.78;;;;;;;-0.54;100.00;98021.81;5020240;28;20049;-69
2022/01/26 01:09:46;;;;;;;87.65;32.95;;;;;;;-0.59;100.00;98015.34;5025692;28;20041;-68
2022/01/26 01:12:11;;;;;;;106.93;35.03;;;;;;;-0.77;100.00;98013.09;5019876;28;20060;-67
2022/01/26 01:14:39;;;;;;;110.70;34.45;;;;;;;-0.92;100.00;98016.50;5028537;28;20041;-68
2022/01/26 01:17:07;;;;;;;107.03;34.80;;;;;;;-0.80;100.00;98013.59;5031707;28;20041;-64
2022/01/26 01:19:41;;;;;;;99.80;32.95;;;;;;;-0.60;100.00;98011.00;5026908;28;20056;-67
2022/01/26 01:29:46;;;;;;;122.22;38.67;;;;;;;-0.54;100.00;98017.25;5040971;28;20189;-66
2022/01/26 01:32:25;;;;;;;122.75;35.65;;;;;;;-0.54;100.00;98021.81;5037855;28;20040;-67
2022/01/26 01:34:50;;;;;;;109.00;35.63;;;;;;;-0.59;100.00;98012.66;5042013;28;20045;-68
2022/01/26 01:37:17;;;;;;;109.90;34.20;;;;;;;-0.62;100.00;98015.84;5035217;28;20461;-67
2022/01/26 01:39:42;;;;;;;94.75;33.72;;;;;;;-0.69;100.00;98014.47;5041701;28;20045;-67
2022/01/26 01:42:08;;;;;;;110.25;33.95;;;;;;;-0.67;100.00;98004.25;5031807;28;20041;-67
2022/01/26 01:44:35;;;;;;;123.15;33.70;;;;;;;-0.80;100.00;98009.03;5021619;28;20056;-67
2022/01/26 01:47:01;;;;;;;110.70;35.47;;;;;;;-0.79;100.00;97999.09;5033536;28;20044;-67
2022/01/26 01:49:27;;;;;;;113.85;34.80;;;;;;;-0.70;100.00;98004.78;5036292;28;20520;-68
2022/01/26 01:52:00;;;;;;;111.35;33.95;;;;;;;-0.62;100.00;98004.28;5021412;28;20041;-65
2022/01/26 01:54:25;;;;;;;128.43;35.13;;;;;;;-0.62;100.00;97994.31;5015033;28;20042;-67
2022/01/26 01:56:56;;;;;;;109.00;35.55;;;;;;;-0.62;100.00;97997.00;5020241;28;20033;-68
2022/01/26 01:59:30;;;;;;;120.18;33.58;;;;;;;-0.72;100.00;97990.78;5016473;28;20174;-68
2022/01/26 02:01:57;;;;;;;114.53;35.60;;;;;;;-0.71;100.00;98001.28;5036008;28;20163;-68
2022/01/26 02:04:22;;;;;;;105.05;35.38;;;;;;;-0.54;100.00;98003.81;5015101;28;21017;-67
2022/01/26 02:06:48;;;;;;;121.47;36.47;;;;;;;-0.62;100.00;98004.28;5018148;28;20049;-67
2022/01/26 02:09:14;;;;;;;106.55;33.47;;;;;;;-0.64;100.00;98007.22;5016529;28;20045;-68
2022/01/26 02:12:06;;;;;;;107.05;33.47;;;;;;;-0.53;100.00;97994.63;5038669;28;20599;-67
2022/01/26 02:14:36;;;;;;;116.32;32.30;;;;;;;-0.67;100.00;97999.69;5030046;28;20052;-67
2022/01/26 02:17:23;;;;;;;108.35;33.63;;;;;;;-0.59;100.00;97998.38;5019786;28;20051;-64
2022/01/26 02:58:35;;;;;;;99.35;33.05;;;;;;;-0.66;100.00;97973.59;5022094;28;20076;-68
2022/01/26 03:03:31;;;;;;;114.18;35.13;;;;;;;-0.72;100.00;97972.78;5014111;28;20549;-65
2022/01/26 03:06:08;;;;;;;238.98;35.92;;;;;;;-1.12;100.00;97965.28;5021061;28;20052;-68
2022/01/26 03:08:42;;;;;;;100.63;33.55;;;;;;;-1.04;100.00;97954.84;5020462;28;20045;-67
2022/01/26 03:11:10;;;;;;;135.95;34.03;;;;;;;-1.04;100.00;97968.28;5015920;28;20548;-67
2022/01/26 03:13:41;;;;;;;154.38;35.88;;;;;;;-1.13;100.00;97964.47;5029844;28;20071;-66
2022/01/26 03:16:23;;;;;;;112.65;36.97;;;;;;;-1.09;100.00;97964.75;5033900;28;20569;-67
2022/01/26 03:21:16;;;;;;;120.15;36.42;;;;;;;-0.82;100.00;97967.34;5015454;28;20087;-65
2022/01/26 03:29:26;;;;;;;101.55;33.20;;;;;;;-0.83;100.00;97963.84;5031373;28;20045;-68
2022/01/26 03:34:19;;;;;;;108.13;35.15;;;;;;;-0.73;100.00;97965.75;5032778;28;20103;-66
2022/01/26 03:36:49;;;;;;;113.38;33.88;;;;;;;-0.69;100.00;97964.16;5024834;28;20048;-66
2022/01/26 03:39:17;;;;;;;113.28;33.80;;;;;;;-0.71;100.00;97968.19;5015715;28;20068;-66
2022/01/26 03:41:47;;;;;;;97.50;31.85;;;;;;;-0.81;100.00;97968.94;5027874;28;20057;-66
2022/01/26 03:44:13;;;;;;;105.43;33.85;;;;;;;-0.82;100.00;97964.66;5021124;28;20049;-67
2022/01/26 03:46:40;;;;;;;112.43;32.33;;;;;;;-0.72;100.00;97967.38;5033453;28;20061;-67
2022/01/26 03:49:08;;;;;;;109.50;34.40;;;;;;;-0.73;100.00;97971.13;5027312;28;20450;-66
2022/01/26 03:51:34;;;;;;;108.13;30.38;;;;;;;-0.73;100.00;97973.03;5036595;28;20052;-65
2022/01/26 03:54:00;;;;;;;107.22;32.25;;;;;;;-0.74;100.00;97968.72;5031175;28;20041;-65
2022/01/26 03:56:25;;;;;;;101.97;32.83;;;;;;;-0.78;100.00;97969.22;5023396;28;20068;-66
2022/01/26 03:58:51;;;;;;;107.70;33.38;;;;;;;-0.83;100.00;97977.28;5054015;28;20033;-66
2022/01/26 04:01:17;;;;;;;113.93;33.67;;;;;;;-0.86;100.00;97972.44;5023900;28;20563;-67
2022/01/26 04:03:42;;;;;;;115.45;35.03;;;;;;;-0.79;100.00;97975.69;5032530;28;20045;-65
2022/01/26 04:06:08;;;;;;;121.32;33.38;;;;;;;-0.91;100.00;97979.66;5030814;28;20045;-66
2022/01/26 04:08:35;;;;;;;107.22;33.42;;;;;;;-0.88;100.00;97969.19;5028614;28;20966;-66
2022/01/26 04:13:45;;;;;;;106.40;31.52;;;;;;;-0.92;100.00;97970.75;5029502;28;20044;-66
2022/01/26 04:16:11;;;;;;;107.93;31.38;;;;;;;-0.86;100.00;97975.13;5039375;28;20040;-65
2022/01/26 04:18:39;;;;;;;99.00;32.97;;;;;;;-0.83;100.00;97969.22;5037615;28;20051;-66
2022/01/26 04:24:01;;;;;;;107.18;30.05;;;;;;;-0.80;100.00;97974.06;5001988;28;20041;-66
2022/01/26 04:26:40;;;;;;;103.78;30.02;;;;;;;-0.92;100.00;97973.44;5032868;28;20041;-67
2022/01/26 04:29:11;;;;;;;118.35;32.40;;;;;;;-0.89;100.00;97981.00;5028147;28;20064;-66
2022/01/26 04:31:36;;;;;;;98.20;31.23;;;;;;;-0.90;100.00;97973.19;5028210;28;20064;-66
2022/01/26 04:34:02;;;;;;;111.95;34.03;;;;;;;-0.99;100.00;97972.88;5038472;28;20052;-66
2022/01/26 04:36:40;;;;;;;100.78;30.58;;;;;;;-1.22;100.00;97979.47;5027684;28;20433;-66
2022/01/26 04:39:10;;;;;;;108.05;31.77;;;;;;;-1.24;100.00;97979.72;5032138;28;20136;-66
2022/01/26 04:44:09;;;;;;;97.78;30.33;;;;;;;-1.05;100.00;97966.66;5035918;28;20146;-65
2022/01/26 04:46:35;;;;;;;87.35;30.70;;;;;;;-0.98;100.00;97961.06;5034069;28;20076;-67
2022/01/26 04:49:01;;;;;;;93.13;30.40;;;;;;;-0.92;100.00;97968.06;5031982;28;20441;-65
2022/01/26 04:51:26;;;;;;;101.88;30.50;;;;;;;-1.29;100.00;97973.50;5034279;28;20105;-65
2022/01/26 04:53:52;;;;;;;96.47;31.52;;;;;;;-1.25;100.00;97975.41;5040776;28;20410;-65
2022/01/26 04:56:17;;;;;;;101.57;32.72;;;;;;;-1.18;100.00;97969.81;5037037;28;20190;-65
2022/01/26 04:58:43;;;;;;;100.10;31.55;;;;;;;-1.18;100.00;97970.63;5036723;28;20502;-66
2022/01/26 05:01:09;;;;;;;104.47;31.92;;;;;;;-1.13;100.00;97971.72;5029524;28;20575;-65
2022/01/26 05:03:34;;;;;;;102.65;32.53;;;;;;;-1.26;100.00;97971.13;5040025;28;20049;-66
2022/01/26 05:05:59;;;;;;;102.30;32.83;;;;;;;-1.32;100.00;97966.75;5029392;28;20497;-66
2022/01/26 05:08:25;;;;;;;105.05;33.30;;;;;;;-1.33;100.00;97967.00;5028500;28;20048;-66
2022/01/26 05:10:50;;;;;;;107.35;32.13;;;;;;;-1.36;100.00;97971.03;5022943;28;20045;-66
2022/01/26 05:13:16;;;;;;;100.63;32.83;;;;;;;-1.51;100.00;97977.13;5027353;28;20056;-66
2022/01/26 05:15:42;;;;;;;119.35;31.90;;;;;;;-1.54;100.00;97975.75;5040913;28;20389;-66
2022/01/26 05:18:09;;;;;;;117.25;31.92;;;;;;;-1.42;100.00;97983.63;5022498;28;20049;-67
2022/01/26 05:20:35;;;;;;;99.07;32.72;;;;;;;-1.21;100.00;97978.38;5032918;28;20053;-67
2022/01/26 05:23:01;;;;;;;99.50;31.23;;;;;;;-1.22;100.00;97982.97;5035338;28;20128;-67
2022/01/26 05:25:27;;;;;;;101.25;32.05;;;;;;;-1.18;100.00;97983.25;5025694;28;20055;-66
2022/01/26 05:27:52;;;;;;;97.30;30.67;;;;;;;-1.21;100.00;97989.16;5041408;28;20041;-66
2022/01/26 05:30:18;;;;;;;97.18;30.40;;;;;;;-1.30;100.00;97974.56;5031421;28;20059;-67
2022/01/26 05:32:44;;;;;;;105.22;31.42;;;;;;;-1.16;100.00;97981.13;5026818;28;20037;-66
2022/01/26 05:35:10;;;;;;;98.63;30.70;;;;;;;-1.20;100.00;97985.41;5028403;28;20048;-65
2022/01/26 05:37:36;;;;;;;102.93;30.90;;;;;;;-1.31;100.00;97984.53;5041638;28;20108;-66
2022/01/26 05:40:03;;;;;;;110.05;33.78;;;;;;;-1.31;100.00;97984.53;5045252;28;20568;-66
2022/01/26 05:42:29;;;;;;;100.28;30.05;;;;;;;-1.29;100.00;97985.06;5024800;28;20053;-66
2022/01/26 05:45:01;;;;;;;97.82;29.83;;;;;;;-1.28;100.00;97977.81;5025495;28;20430;-66
2022/01/26 05:47:27;;;;;;;100.63;32.15;;;;;;;-1.31;100.00;97979.16;5036129;28;20048;-66
2022/01/26 05:49:53;;;;;;;99.57;30.88;;;;;;;-1.24;100.00;97986.97;5040266;28;20044;-66
2022/01/26 05:52:18;;;;;;;95.18;31.00;;;;;;;-1.26;100.00;97984.56;5032337;28;20036;-66
2022/01/26 05:54:44;;;;;;;91.70;30.38;;;;;;;-1.36;100.00;97985.28;5029264;28;20068;-66
2022/01/26 05:57:10;;;;;;;106.85;31.77;;;;;;;-1.99;100.00;97987.69;5035114;28;20078;-66
2022/01/26 05:59:35;;;;;;;110.40;32.72;;;;;;;-2.08;100.00;97991.09;5035400;28;20073;-66
2022/01/26 06:02:01;;;;;;;113.45;32.42;;;;;;;-2.11;100.00;97997.78;5028583;28;20061;-66
2022/01/26 06:04:28;;;;;;;114.65;31.98;;;;;;;-2.10;100.00;97994.03;5031707;28;20128;-66
2022/01/26 06:06:54;;;;;;;134.07;35.65;;;;;;;-2.15;100.00;97993.97;5032820;28;20041;-66
2022/01/26 06:09:19;;;;;;;151.63;36.33;;;;;;;-2.24;100.00;97998.19;5028566;28;20037;-66
2022/01/26 06:11:44;;;;;;;132.43;33.60;;;;;;;-2.13;100.00;97991.84;5031399;28;20087;-65
2022/01/26 06:14:10;;;;;;;136.57;37.13;;;;;;;-2.03;100.00;97991.16;5032916;28;20129;-66
2022/01/26 06:16:35;;;;;;;132.55;36.53;;;;;;;-1.95;100.00;97980.75;5032765;28;20053;-66
2022/01/26 06:19:01;;;;;;;123.80;34.70;;;;;;;-1.82;100.00;97976.88;5034360;28;20076;-66
2022/01/26 06:21:26;;;;;;;128.57;34.63;;;;;;;-1.74;100.00;97973.69;5027335;28;20080;-66
2022/01/26 06:23:52;;;;;;;127.55;34.60;;;;;;;-1.61;100.00;97972.44;5029502;28;20041;-66
2022/01/26 06:26:17;;;;;;;109.80;33.55;;;;;;;-1.51;100.00;97979.81;5029573;28;20069;-64
2022/01/26 06:28:43;;;;;;;108.05;30.88;;;;;;;-1.44;100.00;97974.19;5027949;28;20041;-64
2022/01/26 06:31:14;;;;;;;103.88;32.47;;;;;;;-1.36;100.00;97985.28;5024287;28;20041;-65
2022/01/26 06:33:41;;;;;;;104.28;33.00;;;;;;;-1.29;100.00;97981.56;5021963;28;20491;-65
2022/01/26 06:36:09;;;;;;;109.50;32.35;;;;;;;-1.19;100.00;97990.53;5022430;28;20504;-66
2022/01/26 06:38:35;;;;;;;103.93;30.50;;;;;;;-1.09;100.00;98000.53;5031167;28;20727;-66
2022/01/26 06:41:01;;;;;;;103.40;30.42;;;;;;;-0.87;100.00;97991.50;5030006;28;20092;-66
2022/01/26 06:43:30;;;;;;;95.28;29.85;;;;;;;-0.85;100.00;98002.81;5022342;28;21096;-66
2022/01/26 06:46:07;;;;;;;90.63;29.67;;;;;;;-0.85;100.00;98003.63;5031190;28;20041;-66
2022/01/26 06:51:04;;;;;;;88.38;29.65;;;;;;;-1.03;100.00;98004.84;5016627;28;20068;-65
2022/01/26 06:53:30;;;;;;;88.72;29.77;;;;;;;-0.95;100.00;98000.88;5041203;28;20053;-66
2022/01/26 06:55:56;;;;;;;91.00;30.45;;;;;;;-0.88;100.00;98004.16;5031970;28;20051;-67
2022/01/26 06:58:22;;;;;;;90.68;29.58;;;;;;;-0.86;100.00;98011.97;5034277;28;20928;-65
2022/01/26 07:00:48;;;;;;;86.63;30.58;;;;;;;-0.82;100.00;98013.06;5031986;28;20208;-66
2022/01/26 07:03:13;;;;;;;96.78;31.73;;;;;;;-0.88;100.00;98009.53;5032988;28;20135;-66
2022/01/26 07:05:40;;;;;;;85.93;29.15;;;;;;;-0.92;100.00;98013.78;5039017;28;20140;-65
2022/01/26 07:08:06;;;;;;;83.38;27.48;;;;;;;-1.10;100.00;98015.03;5033345;28;20041;-65
2022/01/26 07:10:32;;;;;;;85.75;30.35;;;;;;;-0.99;100.00;98018.59;5029352;28;20402;-66
2022/01/26 07:12:57;;;;;;;83.47;29.00;;;;;;;-0.99;100.00;98032.03;5038846;28;20131;-66
2022/01/26 07:23:26;;;;;;;81.07;27.95;;;;;;;-0.91;100.00;98038.84;5024157;28;20037;-65
2022/01/26 07:25:52;;;;;;;83.38;29.23;;;;;;;-0.82;100.00;98056.09;5042526;28;20037;-64
2022/01/26 07:28:17;;;;;;;90.15;29.52;;;;;;;-0.71;100.00;98062.38;5036238;28;20398;-66
2022/01/26 07:30:43;;;;;;;86.07;28.80;;;;;;;-0.68;100.00;98059.97;5039435;28;20041;-65
2022/01/26 07:33:09;;;;;;;84.10;27.50;;;;;;;-0.73;100.00;98061.81;5033883;28;20086;-66
2022/01/26 07:35:34;;;;;;;83.13;28.50;;;;;;;-0.80;100.00;98054.75;5039666;28;20492;-66
2022/01/26 07:38:02;;;;;;;75.32;28.40;;;;;;;-0.78;100.00;98049.94;5040081;28;20047;-65
2022/01/26 07:40:28;;;;;;;72.38;26.77;;;;;;;-0.77;100.00;98056.16;5047452;28;20304;-66
2022/01/26 07:42:54;;;;;;;74.30;26.90;;;;;;;-0.86;100.00;98049.63;5056599;28;20049;-65
2022/01/26 07:45:19;;;;;;;75.88;26.27;;;;;;;-0.78;100.00;98062.59;5034662;28;20056;-65
2022/01/26 07:47:46;;;;;;;80.78;29.40;;;;;;;-0.66;100.00;98065.09;5039008;28;20143;-66
2022/01/26 07:50:14;;;;;;;80.97;27.92;;;;;;;-0.64;100.00;98065.63;5033937;28;20321;-65
2022/01/26 07:52:42;;;;;;;72.80;26.20;;;;;;;-0.55;100.00;98072.13;5055481;28;20067;-65
2022/01/26 07:55:10;;;;;;;74.47;27.35;;;;;;;-0.62;100.00;98064.28;5033258;28;20045;-65
2022/01/26 07:57:35;;;;;;;73.30;26.58;;;;;;;-0.58;100.00;98075.34;5039004;28;20144;-65
2022/01/26 08:00:01;;;;;;;73.35;28.23;;;;;;;-0.49;100.00;98081.06;5039815;28;20454;-65
2022/01/26 08:02:27;;;;;;;72.53;25.65;;;;;;;-0.49;100.00;98086.44;5034456;28;20122;-65
2022/01/26 08:04:52;;;;;;;71.07;25.95;;;;;;;-0.44;100.00;98086.47;5039891;28;20402;-66
2022/01/26 08:07:17;;;;;;;69.32;24.95;;;;;;;-0.49;100.00;98083.75;5023776;28;20050;-66
2022/01/26 08:09:45;;;;;;;62.33;24.50;;;;;;;-0.51;100.00;98083.19;5020021;28;20033;-65
2022/01/26 08:12:12;;;;;;;71.43;26.15;;;;;;;-0.68;100.00;98075.31;5015039;28;20574;-65
2022/01/26 08:14:37;;;;;;;71.93;26.90;;;;;;;-0.65;100.00;98075.59;5019670;28;20732;-65
2022/01/26 08:17:05;;;;;;;72.93;27.50;;;;;;;-0.75;100.00;98069.34;5015387;28;20044;-65
2022/01/26 08:19:30;;;;;;;71.70;26.55;;;;;;;-0.78;100.00;98071.44;5019327;28;20041;-66
2022/01/26 08:22:00;;;;;;;67.88;25.25;;;;;;;-0.74;100.00;98079.81;5020056;28;20071;-65
2022/01/26 08:24:26;;;;;;;70.80;27.73;;;;;;;-0.56;100.00;98088.53;5032056;28;20235;-65
2022/01/26 08:26:51;;;;;;;73.00;26.63;;;;;;;-0.35;100.00;98086.78;5040005;28;20136;-65
2022/01/26 08:29:23;;;;;;;82.10;26.92;;;;;;;-0.32;100.00;98075.50;5038424;28;20041;-65
2022/01/26 08:31:48;;;;;;;69.68;26.95;;;;;;;-0.59;100.00;98071.06;5044696;28;20119;-65
2022/01/26 08:34:14;;;;;;;73.07;26.38;;;;;;;-0.50;100.00;98076.75;5038536;28;20136;-67
2022/01/26 08:36:39;;;;;;;73.40;27.00;;;;;;;-0.44;100.00;98073.81;5043853;28;20440;-65
2022/01/26 08:39:05;;;;;;;86.88;32.42;;;;;;;-0.54;100.00;98079.16;5037568;28;20485;-66
2022/01/26 08:41:31;;;;;;;78.07;28.73;;;;;;;-0.61;100.00;98081.28;5057523;28;20045;-65
2022/01/26 08:43:56;;;;;;;82.00;28.23;;;;;;;-0.65;100.00;98075.59;5061372;28;20492;-66
2022/01/26 08:46:22;;;;;;;86.38;33.78;;;;;;;-0.46;100.00;98073.25;5039995;28;20059;-66
2022/01/26 08:48:49;;;;;;;80.72;31.67;;;;;;;-0.32;100.00;98072.81;5043563;28;20094;-66
2022/01/26 08:51:15;;;;;;;84.78;30.83;;;;;;;-0.60;100.00;98066.72;5038804;28;20434;-67
2022/01/26 08:53:41;;;;;;;84.13;33.38;;;;;;;-0.27;100.00;98070.13;5043902;28;20351;-66
2022/01/26 08:56:06;;;;;;;80.18;32.42;;;;;;;-0.25;100.00;98055.34;5038471;28;20048;-66
2022/01/26 08:58:32;;;;;;;82.07;32.55;;;;;;;-0.31;100.00;98063.66;5058782;28;20051;-65
2022/01/26 09:00:57;;;;;;;95.15;38.28;;;;;;;-0.23;100.00;98079.31;5043697;28;20147;-65
2022/01/26 09:03:23;;;;;;;79.10;34.58;;;;;;;-0.36;100.00;98077.06;5051331;28;20040;-67
2022/01/26 09:05:48;;;;;;;83.88;33.08;;;;;;;-0.31;100.00;98071.72;5043223;28;20091;-67
2022/01/26 09:08:14;;;;;;;78.43;32.85;;;;;;;-0.45;100.00;98072.19;5037963;28;20478;-66
2022/01/26 09:10:40;;;;;;;83.70;32.17;;;;;;;-0.42;100.00;98081.63;5043582;28;20577;-66
2022/01/26 09:13:06;;;;;;;84.45;34.22;;;;;;;-0.36;100.00;98069.84;5039987;28;20036;-63
2022/01/26 09:15:33;;;;;;;81.13;32.90;;;;;;;-0.50;100.00;98072.19;5061697;28;20057;-66
2022/01/26 09:18:03;;;;;;;75.85;29.15;;;;;;;-0.73;100.00;98072.56;5055052;28;20037;-65
2022/01/26 09:20:28;;;;;;;76.97;29.70;;;;;;;-0.57;100.00;98084.25;5041634;28;20258;-65
2022/01/26 09:22:54;;;;;;;72.32;28.02;;;;;;;-0.42;100.00;98085.13;5042828;28;20148;-66
2022/01/26 09:25:19;;;;;;;76.88;31.70;;;;;;;-0.56;100.00;98080.47;5032319;28;20041;-66
2022/01/26 09:27:45;;;;;;;71.00;29.40;;;;;;;-0.56;100.00;98080.47;5022428;28;20034;-66
2022/01/26 09:30:11;;;;;;;71.25;28.73;;;;;;;-0.50;100.00;98095.59;5013002;28;20041;-66
2022/01/26 09:32:37;;;;;;;70.72;28.10;;;;;;;-0.36;100.00;98094.06;5022477;28;20179;-66
2022/01/26 09:35:05;;;;;;;64.20;25.95;;;;;;;-0.53;100.00;98085.34;5015179;28;20053;-65
2022/01/26 09:37:30;;;;;;;69.57;29.30;;;;;;;-0.88;100.00;98079.47;5022196;28;20419;-66
2022/01/26 09:39:56;;;;;;;67.78;26.85;;;;;;;-0.69;100.00;98082.53;5022326;28;20045;-65
2022/01/26 09:42:23;;;;;;;61.63;24.40;;;;;;;-0.51;100.00;98078.63;5017038;28;20587;-66
2022/01/26 09:44:48;;;;;;;64.03;27.15;;;;;;;-0.48;100.00;98088.06;5021978;28;20196;-66
2022/01/26 09:47:14;;;;;;;67.72;27.58;;;;;;;-0.15;100.00;98092.25;5016474;28;20045;-66
2022/01/26 09:49:39;;;;;;;62.25;27.33;;;;;;;0.01;100.00;98081.56;5021858;28;20043;-66
2022/01/26 09:52:16;;;;;;;67.38;26.58;;;;;;;-0.08;100.00;98087.44;5016870;28;20037;-65
2022/01/26 09:54:42;;;;;;;64.25;27.17;;;;;;;-0.52;100.00;98084.25;5021528;28;20175;-66
2022/01/26 09:57:08;;;;;;;63.78;25.88;;;;;;;-0.57;100.00;98092.31;5016414;28;20258;-66
2022/01/26 09:59:34;;;;;;;60.65;24.10;;;;;;;-0.66;100.00;98089.31;5021859;28;20128;-66
2022/01/26 10:02:00;;;;;;;53.15;23.50;;;;;;;-0.45;100.00;98091.03;5021728;28;20033;-66
2022/01/26 10:04:38;;;;;;;59.17;23.42;;;;;;;-0.45;100.00;98104.50;5016841;28;20509;-66
2022/01/26 10:18:11;;;;;;;55.45;22.17;;;;;;;-0.11;100.00;98097.94;5021865;28;20434;-67
2022/01/26 10:20:53;;;;;;;58.20;23.27;;;;;;;0.16;100.00;98103.16;5018853;28;20041;-66
2022/01/26 10:23:23;;;;;;;50.60;21.10;;;;;;;0.07;100.00;98102.84;5036103;28;20124;-66
2022/01/26 10:26:06;;;;;;;48.08;20.38;;;;;;;0.06;100.00;98105.81;5051982;28;20041;-66
2022/01/26 10:28:56;;;;;;;43.97;20.20;;;;;;;0.23;100.00;98106.41;5039674;28;20041;-66
2022/01/26 10:31:39;;;;;;;47.63;20.45;;;;;;;0.23;100.00;98100.22;5034628;28;20037;-66
2022/01/26 10:34:10;;;;;;;48.85;20.73;;;;;;;0.29;100.00;98093.75;5033655;28;20136;-65
2022/01/26 10:36:37;;;;;;;57.25;24.80;;;;;;;0.48;100.00;98096.78;5037530;28;20044;-66
2022/01/26 10:39:10;;;;;;;53.50;24.42;;;;;;;0.18;100.00;98091.03;5039412;28;20044;-66
2022/01/26 10:41:37;;;;;;;48.78;21.20;;;;;;;0.22;100.00;98096.72;5041157;28;20041;-66
2022/01/26 10:44:03;;;;;;;47.70;19.60;;;;;;;0.26;100.00;98097.78;5039317;28;20041;-64
2022/01/26 10:46:31;;;;;;;45.70;19.63;;;;;;;0.29;100.00;98108.06;5037984;28;20037;-66
2022/01/26 10:52:35;;;;;;;44.08;20.00;;;;;;;0.30;100.00;98101.56;5032751;28;20076;-65
2022/01/26 10:55:02;;;;;;;48.47;20.42;;;;;;;-0.31;100.00;98077.09;5055737;28;20094;-66
2022/01/26 10:57:28;;;;;;;42.17;19.65;;;;;;;-0.50;100.00;98074.88;5052491;28;20145;-64
2022/01/26 10:59:54;;;;;;;44.47;20.00;;;;;;;-0.28;100.00;98074.69;5040737;28;20457;-66
2022/01/26 11:02:40;;;;;;;44.83;20.23;;;;;;;-0.05;100.00;98075.34;5035461;28;20041;-66
2022/01/26 11:05:06;;;;;;;45.20;20.13;;;;;;;-0.07;100.00;98061.34;5035361;28;20037;-66
2022/01/26 11:07:42;;;;;;;47.00;21.35;;;;;;;0.17;100.00;98051.69;5040700;28;20047;-66
2022/01/26 11:10:09;;;;;;;47.10;19.63;;;;;;;0.26;100.00;98043.91;5035359;28;20037;-67
2022/01/26 11:12:39;;;;;;;45.88;20.75;;;;;;;0.39;100.00;98045.28;5040409;28;20045;-64
2022/01/26 11:15:16;;;;;;;45.42;21.45;;;;;;;0.34;100.00;98039.88;5034939;28;20048;-64
2022/01/26 11:17:46;;;;;;;45.08;20.00;;;;;;;0.33;100.00;98036.38;5040110;28;20052;-65
2022/01/26 11:20:34;;;;;;;43.97;20.77;;;;;;;0.50;100.00;98024.53;5035270;28;20037;-66
2022/01/26 11:23:03;;;;;;;45.88;20.40;;;;;;;0.84;100.00;98018.59;5039416;28;20103;-67
2022/01/26 11:25:39;;;;;;;47.45;20.83;;;;;;;1.25;97.23;98013.94;5037129;28;20049;-66
2022/01/26 11:28:23;;;;;;;47.92;21.65;;;;;;;1.09;95.83;98015.06;5035898;28;20071;-66
2022/01/26 11:30:50;;;;;;;47.92;22.13;;;;;;;0.88;97.06;98017.81;5040388;28;20114;-67
2022/01/26 11:33:20;;;;;;;47.70;21.60;;;;;;;0.76;96.65;98018.06;5022781;28;20045;-67
2022/01/26 11:35:48;;;;;;;48.40;22.50;;;;;;;0.19;100.00;98011.00;5029070;28;20042;-67
2022/01/26 11:46:51;;;;;;;50.17;22.33;;;;;;;0.15;100.00;98015.31;5020006;28;20037;-66
2022/01/26 11:49:32;;;;;;;46.65;22.80;;;;;;;0.21;100.00;98018.84;5024667;28;20049;-65
2022/01/26 11:51:57;;;;;;;47.03;22.58;;;;;;;1.32;100.00;97992.88;5033698;28;20071;-67
2022/01/26 11:54:50;;;;;;;50.58;22.52;;;;;;;2.40;94.17;97996.94;5027216;28;20064;-66
2022/01/26 11:57:18;;;;;;;41.00;20.10;;;;;;;2.60;91.44;97994.06;5032472;28;20526;-66
2022/01/26 11:59:56;;;;;;;41.13;19.88;;;;;;;3.54;85.40;97994.78;5030767;28;20046;-66
2022/01/26 12:02:48;;;;;;;42.10;19.88;;;;;;;3.99;79.94;97993.41;5033137;28;20057;-66
2022/01/26 12:05:12;;;;;;;35.78;16.50;;;;;;;4.23;79.71;98000.66;5017449;28;20513;-66
2022/01/26 12:07:55;;;;;;;34.92;17.13;;;;;;;4.42;77.44;97989.81;5037173;28;20133;-66
2022/01/26 12:10:29;;;;;;;35.15;17.95;;;;;;;4.58;77.47;97991.19;5017246;28;20045;-66
2022/01/26 12:13:03;;;;;;;33.25;16.73;;;;;;;5.57;76.00;97979.41;5017422;28;20537;-66
2022/01/26 12:15:41;;;;;;;33.80;16.80;;;;;;;5.83;70.39;97985.91;4999651;28;20048;-65
2022/01/26 12:18:32;;;;;;;35.63;17.10;;;;;;;6.34;68.40;97991.38;5015995;28;20049;-64
2022/01/26 12:35:49;;;;;;;42.38;17.80;;;;;;;8.39;58.52;97973.06;5032610;28;20041;-67
2022/01/26 12:44:06;;;;;;;41.75;16.25;;;;;;;8.13;60.50;97977.69;5032797;28;20044;-66
2022/01/26 12:46:33;;;;;;;42.55;16.83;;;;;;;8.44;57.93;97979.50;5037527;28;20044;-65
2022/01/26 12:49:04;;;;;;;38.47;17.23;;;;;;;8.45;57.61;97990.13;5040058;28;20040;-66
2022/01/26 12:51:32;;;;;;;36.17;17.50;;;;;;;8.76;57.63;97983.69;5037950;28;20059;-66
2022/01/26 12:54:02;;;;;;;44.25;16.65;;;;;;;8.54;56.66;97976.47;5039412;28;20040;-65
2022/01/26 12:56:32;;;;;;;31.60;15.77;;;;;;;8.80;55.00;97970.97;5038896;28;20056;-64
2022/01/26 12:59:10;;;;;;;37.30;17.35;;;;;;;9.57;55.05;97958.19;5033904;28;20044;-65
2022/01/26 13:01:36;;;;;;;32.10;16.50;;;;;;;9.55;54.03;97954.19;5039690;28;20041;-67
2022/01/26 13:04:07;;;;;;;35.72;16.00;;;;;;;9.68;53.13;97949.63;5039306;28;20032;-66
2022/01/26 13:06:41;;;;;;;30.90;16.60;;;;;;;9.34;54.61;97956.84;5035058;28;20041;-66
2022/01/26 13:09:25;;;;;;;36.90;17.23;;;;;;;8.85;55.79;97970.81;5027233;28;20529;-66
2022/01/26 13:11:51;;;;;;;30.70;16.05;;;;;;;8.51;56.16;97972.44;5054966;28;20025;-67
2022/01/26 13:14:38;;;;;;;31.58;15.65;;;;;;;9.17;55.22;97957.72;5028138;28;20049;-66
2022/01/26 13:28:23;;;;;;;32.17;16.02;;;;;;;7.49;61.11;97948.19;5042041;28;20480;-66
2022/01/26 13:34:04;;;;;;;32.65;16.40;;;;;;;6.19;64.59;97944.38;5023579;28;20060;-66
2022/01/26 13:36:45;;;;;;;33.60;17.38;;;;;;;6.00;67.12;97947.25;5018237;28;20200;-64
2022/01/26 13:39:28;;;;;;;36.20;17.85;;;;;;;5.82;69.56;97953.63;5018199;28;20137;-65
2022/01/26 14:01:00;;;;;;;51.35;21.45;;;;;;;2.48;90.30;97950.34;5039706;28;20064;-66
2022/01/26 14:03:28;;;;;;;41.47;19.08;;;;;;;2.28;92.38;97945.91;5033233;28;20044;-66
2022/01/26 14:05:55;;;;;;;44.67;19.95;;;;;;;1.89;95.95;97950.25;5025092;28;20061;-64
2022/01/26 14:08:21;;;;;;;44.80;20.17;;;;;;;1.82;97.18;97951.59;5028085;28;20137;-66